Time,TemperatureF,DewpointF,PressureIn,WindDirection,WindDirectionDegrees,WindSpeedMPH,WindSpeedGustMPH,Humidity,HourlyPrecipIn,Conditions,Clouds,dailyrainin,SoftwareType,DateUTC
2013-05-19 00:00:00,78.6,69.6,29.80,SE,135,6.0,14.0,74,0.00,,---,0.00,VWS V14.01,2013-05-19 05:00:00,
2013-05-19 00:30:00,77.7,69.2,29.81,SE,135,6.0,12.0,75,0.00,,---,0.00,VWS V14.01,2013-05-19 05:30:00,
2013-05-19 01:00:00,76.8,68.7,29.81,SSE,158,5.0,11.0,76,0.00,,---,0.00,VWS V14.01,2013-05-19 06:00:00,
2013-05-19 01:30:00,75.9,68.6,29.79,SSE,158,5.0,13.0,78,0.00,,---,0.00,VWS V14.01,2013-05-19 06:30:00,
2013-05-19 02:00:00,75.6,67.9,29.79,SSE,158,6.0,15.0,77,0.00,,---,0.00,VWS V14.01,2013-05-19 07:00:00,
2013-05-19 02:30:00,74.8,67.5,29.79,SSE,158,6.0,12.0,78,0.00,,---,0.00,VWS V14.01,2013-05-19 07:30:00,
2013-05-19 03:00:00,74.0,67.1,29.79,SSE,158,5.0,10.0,79,0.00,,---,0.00,VWS V14.01,2013-05-19 08:00:00,
2013-05-19 03:30:00,73.2,67.0,29.80,SSE,158,5.0,10.0,81,0.00,,---,0.00,VWS V14.01,2013-05-19 08:30:00,
2013-05-19 04:00:00,72.7,66.9,29.80,SSE,158,6.0,12.0,82,0.00,,---,0.00,VWS V14.01,2013-05-19 09:00:00,
2013-05-19 04:30:00,72.0,66.9,29.79,SSE,158,4.0,10.0,84,0.00,,---,0.00,VWS V14.01,2013-05-19 09:30:00,
2013-05-19 05:00:00,71.4,67.0,29.79,SSE,158,5.0,9.0,86,0.00,,---,0.00,VWS V14.01,2013-05-19 10:00:00,
2013-05-19 05:30:00,71.1,67.7,29.78,SSE,158,4.0,10.0,89,0.00,,---,0.00,VWS V14.01,2013-05-19 10:30:00,
2013-05-19 06:00:00,71.4,68.0,29.78,SSE,158,5.0,13.0,89,0.00,,---,0.00,VWS V14.01,2013-05-19 11:00:00,
2013-05-19 06:30:00,71.4,68.0,29.79,SSE,158,5.0,11.0,89,0.00,,---,0.00,VWS V14.01,2013-05-19 11:30:00,
2013-05-19 07:00:00,71.7,68.3,29.80,SSE,158,5.0,12.0,89,0.00,,---,0.00,VWS V14.01,2013-05-19 12:00:00,
2013-05-19 07:30:00,72.0,68.6,29.80,SSE,158,5.0,13.0,89,0.00,,---,0.00,VWS V14.01,2013-05-19 12:30:00,
2013-05-19 08:00:00,72.7,68.9,29.81,SSE,158,7.0,14.0,88,0.00,,---,0.00,VWS V14.01,2013-05-19 13:00:00,
2013-05-19 08:30:00,74.2,69.1,29.81,SSE,158,8.0,17.0,84,0.00,,---,0.00,VWS V14.01,2013-05-19 13:30:00,
2013-05-19 09:00:00,75.2,69.3,29.82,SSE,158,9.0,19.0,82,0.00,,---,0.00,VWS V14.01,2013-05-19 14:00:00,
2013-05-19 09:30:00,77.0,70.0,29.82,SSE,158,8.0,17.0,79,0.00,,---,0.00,VWS V14.01,2013-05-19 14:30:00,
2013-05-19 10:00:00,77.9,69.7,29.83,SSE,158,8.0,16.0,76,0.00,,---,0.00,VWS V14.01,2013-05-19 15:00:00,
2013-05-19 10:30:00,79.5,69.3,29.83,SSE,158,7.0,15.0,71,0.00,,---,0.00,VWS V14.01,2013-05-19 15:30:00,
2013-05-19 11:00:00,80.8,69.3,29.82,SSE,158,7.0,18.0,68,0.00,,---,0.00,VWS V14.01,2013-05-19 16:00:00,
2013-05-19 11:30:00,81.7,70.1,29.82,SSE,158,8.0,17.0,68,0.00,,---,0.00,VWS V14.01,2013-05-19 16:30:00,
2013-05-19 12:00:00,82.9,70.4,29.81,SSE,158,8.0,19.0,66,0.00,,---,0.00,VWS V14.01,2013-05-19 17:00:00,
2013-05-19 12:30:00,83.9,70.9,29.79,SSE,158,7.0,19.0,65,0.00,,---,0.00,VWS V14.01,2013-05-19 17:30:00,
2013-05-19 13:00:00,84.6,70.6,29.77,SSE,158,6.0,17.0,63,0.00,,---,0.00,VWS V14.01,2013-05-19 18:00:00,
2013-05-19 13:30:00,85.6,69.6,29.77,SSE,158,9.0,19.0,59,0.00,,---,0.00,VWS V14.01,2013-05-19 18:30:00,
2013-05-19 14:00:00,87.0,69.9,29.75,SSE,158,8.0,18.0,57,0.00,,---,0.00,VWS V14.01,2013-05-19 19:00:00,
2013-05-19 14:30:00,87.1,70.0,29.73,SSE,158,8.0,18.0,57,0.00,,---,0.00,VWS V14.01,2013-05-19 19:30:00,
2013-05-19 15:00:00,86.8,70.8,29.73,SE,135,8.0,16.0,59,0.00,,---,0.00,VWS V14.01,2013-05-19 20:00:00,
2013-05-19 15:30:00,86.7,70.2,29.72,SE,135,9.0,18.0,58,0.00,,---,0.00,VWS V14.01,2013-05-19 20:30:00,
2013-05-19 16:00:00,87.6,71.0,29.71,SE,135,8.0,17.0,58,0.00,,---,0.00,VWS V14.01,2013-05-19 21:00:00,
2013-05-19 16:30:00,89.0,68.5,29.70,SSE,158,9.0,20.0,51,0.00,,---,0.00,VWS V14.01,2013-05-19 21:30:00,
2013-05-19 17:00:00,89.1,69.2,29.70,SSE,158,7.0,20.0,52,0.00,,---,0.00,VWS V14.01,2013-05-19 22:00:00,
2013-05-19 17:30:00,89.3,67.7,29.69,SSE,158,8.0,19.0,49,0.00,,---,0.00,VWS V14.01,2013-05-19 22:30:00,
2013-05-19 18:00:00,88.5,69.8,29.68,SSE,158,6.0,14.0,54,0.00,,---,0.00,VWS V14.01,2013-05-19 23:00:00,
2013-05-19 18:30:00,88.1,69.9,29.67,SSE,158,6.0,16.0,55,0.00,,---,0.00,VWS V14.01,2013-05-19 23:30:00,
2013-05-19 19:00:00,85.5,71.0,29.68,SE,135,5.0,12.0,62,0.00,,---,0.00,VWS V14.01,2013-05-20 00:00:00,
2013-05-19 19:30:00,84.8,69.9,29.68,SE,135,7.0,15.0,61,0.00,,---,0.00,VWS V14.01,2013-05-20 00:30:00,
2013-05-19 20:00:00,83.5,70.1,29.70,SE,135,8.0,15.0,64,0.00,,---,0.00,VWS V14.01,2013-05-20 01:00:00,
2013-05-19 20:30:00,82.1,70.1,29.71,SE,135,7.0,12.0,67,0.00,,---,0.00,VWS V14.01,2013-05-20 01:30:00,
2013-05-19 21:00:00,82.1,68.3,29.73,SE,135,8.0,16.0,63,0.00,,---,0.00,VWS V14.01,2013-05-20 02:00:00,
2013-05-19 21:30:00,81.6,67.3,29.73,SE,135,9.0,15.0,62,0.00,,---,0.00,VWS V14.01,2013-05-20 02:30:00,
2013-05-19 22:00:00,81.2,66.9,29.75,SE,135,8.0,18.0,62,0.00,,---,0.00,VWS V14.01,2013-05-20 03:00:00,
2013-05-19 22:30:00,80.2,67.4,29.75,SE,135,7.0,14.0,65,0.00,,---,0.00,VWS V14.01,2013-05-20 03:30:00,
2013-05-19 23:00:00,79.4,67.9,29.76,SE,135,8.0,15.0,68,0.00,,---,0.00,VWS V14.01,2013-05-20 04:00:00,
2013-05-19 23:30:00,78.6,68.8,29.76,SE,135,8.0,15.0,72,0.00,,---,0.00,VWS V14.01,2013-05-20 04:30:00,